Weather History for Mount Vernon, IL

Change the Weather History Date:

Thursday, January 9, 2014

  Actual Average Record
Temperature  
Mean Temperature 28 °F -  
Max Temperature 33 °F 37 °F 55 °F (2002)
Min Temperature 23 °F 22 °F 1 °F (1999)
Degree Days  
Heating Degree Days 37    
Moisture  
Dew Point 27 °F    
Average Humidity 87    
Maximum Humidity 93    
Minimum Humidity 75    
Precipitation  
Precipitation 0.01 in - - ()
Sea Level Pressure  
Sea Level Pressure 30.33 in    
Wind  
Wind Speed 6 mph (ESE)    
Max Wind Speed 9 mph    
Max Gust Speed -    
Visibility 7 miles    
Events      
Averages and records for this station are not official NWS values.
T = Trace of Precipitation, MM = Missing Value Source: NWS Daily Summary

Daily Weather History Graph

Daily Weather History Graph

Search for Another Location

Airport:

Trip Planner

Search our weather history database for the weather conditions in past years. The results will help you decide how hot, cold, wet, or windy it might be!

Date:

Astronomy

Jan. 09, 2014 Rise Set
Actual Time 7:12 AM CST 4:53 PM CST
Civil Twilight 6:43 AM CST 5:22 PM CST
Nautical Twilight 6:10 AM CST 5:55 PM CST
Astronomical Twilight 5:38 AM CST 6:26 PM CST
Moon 12:18 PM CST (1/9) 1:22 AM CST (1/9)
Length of Visible Light 10h 39m
Length of Day
9h 40m
Waxing Gibbous, 66% of the Moon is Illuminated
Jan 9
Waxing Gibbous
Jan 15
Full
Jan 23
Last Quarter
Jan 30
New
Feb 6
First Quarter

Hourly Weather History & Observations

Time (CST) Temp. Windchill Dew Point Humidity Pressure Visibility Wind Dir Wind Speed Gust Speed Precip Events Conditions
12:15 AM 24.8 °F 19.1 °F 21.2 °F 86% 30.45 in 9.0 mi NNE 4.6 mph - N/A   Overcast
12:35 AM 24.8 °F 17.9 °F 21.2 °F 86% 30.45 in 10.0 mi NE 5.8 mph - N/A   Overcast
12:55 AM 24.8 °F 19.1 °F 21.2 °F 86% 30.44 in 7.0 mi NNE 4.6 mph - N/A   Overcast
1:15 AM 24.8 °F 16.9 °F 21.2 °F 86% 30.43 in 6.0 mi NE 6.9 mph - N/A   Overcast
1:35 AM 24.8 °F 19.1 °F 21.2 °F 86% 30.44 in 5.0 mi NE 4.6 mph - N/A   Overcast
1:55 AM 24.8 °F 19.1 °F 21.2 °F 86% 30.44 in 7.0 mi NE 4.6 mph - N/A   Overcast
2:15 AM 24.8 °F 17.9 °F 19.4 °F 80% 30.45 in 7.0 mi NE 5.8 mph - N/A   Overcast
2:35 AM 24.8 °F 17.9 °F 21.2 °F 86% 30.44 in 3.0 mi NE 5.8 mph - N/A   Overcast
2:55 AM 23.0 °F 17.0 °F 21.2 °F 93% 30.44 in 3.0 mi NNE 4.6 mph - N/A   Overcast
3:15 AM 23.0 °F 15.8 °F 21.2 °F 93% 30.44 in 2.0 mi NNE 5.8 mph - N/A   Overcast
3:35 AM 23.0 °F 14.7 °F 21.2 °F 93% 30.44 in 3.0 mi NE 6.9 mph - N/A   Overcast
3:55 AM 23.0 °F 15.8 °F 21.2 °F 93% 30.43 in 1.8 mi NE 5.8 mph - N/A   Overcast
4:15 AM 24.8 °F 17.9 °F 21.2 °F 86% 30.43 in 2.5 mi NE 5.8 mph - N/A   Overcast
4:35 AM 24.8 °F 16.9 °F 21.2 °F 86% 30.42 in 5.0 mi NE 6.9 mph - N/A   Overcast
4:55 AM 24.8 °F 19.1 °F 21.2 °F 86% 30.43 in 5.0 mi NE 4.6 mph - N/A   Overcast
5:15 AM 24.8 °F 19.1 °F 21.2 °F 86% 30.42 in 10.0 mi NE 4.6 mph - N/A   Overcast
5:35 AM 24.8 °F 20.5 °F 21.2 °F 86% 30.43 in 8.0 mi NE 3.5 mph - N/A   Overcast
5:55 AM 24.8 °F 17.9 °F 21.2 °F 86% 30.41 in 3.0 mi NE 5.8 mph - N/A   Overcast
6:15 AM 24.8 °F 20.5 °F 21.2 °F 86% 30.42 in 5.0 mi NE 3.5 mph - N/A   Overcast
6:35 AM 24.8 °F 19.1 °F 21.2 °F 86% 30.41 in 4.0 mi NE 4.6 mph - N/A   Overcast
6:55 AM 24.8 °F 17.9 °F 21.2 °F 86% 30.41 in 4.0 mi NE 5.8 mph - N/A   Overcast
7:15 AM 24.8 °F 19.1 °F 23.0 °F 93% 30.40 in 6.0 mi NE 4.6 mph - N/A   Overcast
7:35 AM 24.8 °F 20.5 °F 23.0 °F 93% 30.41 in 6.0 mi NE 3.5 mph - N/A   Overcast
7:55 AM 26.6 °F 22.6 °F 23.0 °F 86% 30.40 in 5.0 mi ENE 3.5 mph - N/A   Overcast
8:15 AM 26.6 °F 19.1 °F 24.8 °F 93% 30.39 in 3.0 mi ENE 6.9 mph - N/A   Overcast
8:35 AM 28.4 °F 20.4 °F 24.8 °F 86% 30.39 in 3.0 mi East 8.1 mph - N/A   Overcast
8:55 AM 28.4 °F 21.2 °F 26.6 °F 93% 30.38 in 4.0 mi East 6.9 mph - N/A   Overcast
9:15 AM 28.4 °F 20.4 °F 26.6 °F 93% 30.38 in 5.0 mi East 8.1 mph - N/A   Overcast
9:35 AM 30.2 °F 23.4 °F 28.4 °F 93% 30.38 in 7.0 mi ESE 6.9 mph - N/A   Overcast
9:55 AM 30.2 °F 23.4 °F 28.4 °F 93% 30.38 in 6.0 mi East 6.9 mph - N/A   Overcast
10:15 AM 30.2 °F 23.4 °F 28.4 °F 93% 30.37 in 8.0 mi ESE 6.9 mph - N/A   Overcast
10:35 AM 32.0 °F 26.4 °F 28.4 °F 87% 30.37 in 10.0 mi ESE 5.8 mph - N/A   Overcast
10:55 AM 33.8 °F 27.7 °F 28.4 °F 81% 30.37 in 10.0 mi SSE 6.9 mph - N/A   Overcast
11:15 AM 33.8 °F 27.7 °F 28.4 °F 81% 30.36 in 10.0 mi SE 6.9 mph - N/A   Overcast
11:35 AM 33.8 °F 28.6 °F 28.4 °F 81% 30.34 in 10.0 mi SSE 5.8 mph - N/A   Overcast
11:55 AM 33.8 °F 28.6 °F 26.6 °F 75% 30.32 in 10.0 mi SSE 5.8 mph - N/A   Overcast
12:15 PM 33.8 °F 29.6 °F 28.4 °F 81% 30.30 in 10.0 mi SSE 4.6 mph - N/A   Overcast
12:35 PM 33.8 °F 27.0 °F 28.4 °F 81% 30.28 in 10.0 mi SSE 8.1 mph - N/A   Overcast
12:55 PM 33.8 °F 26.4 °F 28.4 °F 81% 30.28 in 10.0 mi SSE 9.2 mph - N/A   Overcast
1:15 PM 33.8 °F 27.0 °F 28.4 °F 81% 30.27 in 10.0 mi SSE 8.1 mph - N/A   Overcast
1:35 PM 33.8 °F 27.7 °F 28.4 °F 81% 30.27 in 10.0 mi South 6.9 mph - N/A   Overcast
1:55 PM 33.8 °F 26.4 °F 28.4 °F 81% 30.26 in 10.0 mi SSE 9.2 mph - N/A   Overcast
2:35 PM 33.8 °F 28.6 °F 28.4 °F 81% 30.26 in 10.0 mi South 5.8 mph - 0.01 in   Overcast
2:55 PM 33.8 °F 27.7 °F 28.4 °F 81% 30.26 in 10.0 mi SSE 6.9 mph - 0.01 in   Overcast
3:15 PM 33.8 °F 27.0 °F 28.4 °F 81% 30.27 in 10.0 mi South 8.1 mph - N/A   Overcast
3:35 PM 33.8 °F 29.6 °F 30.2 °F 87% 30.27 in 10.0 mi South 4.6 mph - N/A   Overcast
3:55 PM 33.8 °F 27.7 °F 30.2 °F 87% 30.27 in 6.0 mi SSE 6.9 mph - N/A   Overcast
4:15 PM 33.8 °F 29.6 °F 30.2 °F 87% 30.27 in 3.0 mi SSE 4.6 mph - N/A   Overcast
5:15 PM 33.8 °F 29.6 °F 30.2 °F 87% 30.27 in 7.0 mi SE 4.6 mph - N/A   Overcast
5:35 PM 33.8 °F 29.6 °F 30.2 °F 87% 30.27 in 7.0 mi SE 4.6 mph - N/A   Overcast
5:55 PM 32.0 °F 26.4 °F 30.2 °F 93% 30.26 in 7.0 mi SE 5.8 mph - N/A   Overcast
6:15 PM 33.8 °F 29.6 °F 30.2 °F 87% 30.26 in 7.0 mi SE 4.6 mph - N/A   Overcast
6:35 PM 33.8 °F 30.8 °F 30.2 °F 87% 30.27 in 5.0 mi SE 3.5 mph - N/A   Overcast
6:55 PM 33.8 °F 28.6 °F 30.2 °F 87% 30.27 in 6.0 mi SE 5.8 mph - N/A   Overcast
7:15 PM 33.8 °F 29.6 °F 30.2 °F 87% 30.27 in 3.0 mi SE 4.6 mph - N/A   Overcast
7:35 PM 33.8 °F 29.6 °F 30.2 °F 87% 30.26 in 4.0 mi SE 4.6 mph - N/A   Overcast
7:55 PM 33.8 °F 29.6 °F 30.2 °F 87% 30.26 in 6.0 mi SE 4.6 mph - N/A   Overcast
8:15 PM 33.8 °F 29.6 °F 30.2 °F 87% 30.25 in 7.0 mi SSE 4.6 mph - N/A   Overcast
8:35 PM 33.8 °F 28.6 °F 32.0 °F 93% 30.24 in 10.0 mi SE 5.8 mph - N/A   Overcast
8:55 PM 33.8 °F 29.6 °F 30.2 °F 87% 30.24 in 9.0 mi SSE 4.6 mph - N/A   Overcast
9:15 PM 33.8 °F 28.6 °F 32.0 °F 93% 30.24 in 7.0 mi SSE 5.8 mph - N/A   Overcast
9:35 PM 33.8 °F 28.6 °F 32.0 °F 93% 30.24 in 10.0 mi SSE 5.8 mph - N/A   Overcast
9:55 PM 33.8 °F 28.6 °F 32.0 °F 93% 30.23 in 10.0 mi SSE 5.8 mph - N/A   Overcast
10:15 PM 33.8 °F 29.6 °F 30.2 °F 87% 30.23 in 10.0 mi SSE 4.6 mph - N/A   Overcast
10:35 PM 33.8 °F 28.6 °F 30.2 °F 87% 30.22 in 10.0 mi SSE 5.8 mph - N/A   Overcast
10:55 PM 33.8 °F 27.7 °F 32.0 °F 93% 30.21 in 10.0 mi SE 6.9 mph - N/A   Overcast
11:15 PM 33.8 °F 28.6 °F 30.2 °F 87% 30.20 in 10.0 mi SE 5.8 mph - N/A   Overcast
11:35 PM 33.8 °F 28.6 °F 32.0 °F 93% 30.20 in 10.0 mi SSE 5.8 mph - N/A   Overcast
11:55 PM 33.8 °F 30.8 °F 32.0 °F 93% 30.19 in 10.0 mi SSE 3.5 mph - N/A   Overcast